Time;durP1;ratioP1;P1;durP2;ratioP2;P2;SDS_P1;SDS_P2;PMS_P1;PMS_P2;Temp;Humidity;BMP_temperature;BMP_pressure;BME280_temperature;BME280_humidity;BME280_pressure;Samples;Min_cycle;Max_cycle;Signal;HPM_P1;HPM_P2
2023/07/05 00:00:42;;;;;;;15.48;11.25;;;;;;;;;;5016910;28;20232;-55
2023/07/05 00:03:08;;;;;;;18.75;12.00;;;;;;;;;;5017955;28;20555;-55
2023/07/05 00:05:35;;;;;;;15.40;10.85;;;;;;;;;;5017587;28;20188;-55
2023/07/05 00:08:01;;;;;;;15.23;10.88;;;;;;;;;;5016842;28;20176;-55
2023/07/05 00:10:27;;;;;;;15.85;11.73;;;;;;;;;;5017705;28;20181;-55
2023/07/05 00:12:53;;;;;;;14.35;10.93;;;;;;;;;;5018108;28;20263;-55
2023/07/05 00:15:19;;;;;;;15.65;11.32;;;;;;;;;;5017654;28;20181;-55
2023/07/05 00:17:45;;;;;;;17.20;11.68;;;;;;;;;;5016814;28;20231;-54
2023/07/05 00:20:11;;;;;;;15.30;11.27;;;;;;;;;;5017589;28;20181;-54
2023/07/05 00:22:37;;;;;;;15.70;10.88;;;;;;;;;;5000185;28;20275;-54
2023/07/05 00:25:04;;;;;;;15.05;10.90;;;;;;;;;;5017028;28;20272;-55
2023/07/05 00:27:30;;;;;;;16.67;10.70;;;;;;;;;;5016978;28;20184;-55
2023/07/05 00:29:55;;;;;;;14.23;10.68;;;;;;;;;;5017079;28;20211;-55
2023/07/05 00:32:21;;;;;;;14.63;11.35;;;;;;;;;;5017522;28;20599;-55
2023/07/05 00:34:47;;;;;;;15.35;10.95;;;;;;;;;;5017144;28;20180;-55
2023/07/05 00:37:13;;;;;;;15.35;10.63;;;;;;;;;;5016189;28;20181;-55
2023/07/05 00:39:39;;;;;;;16.48;11.43;;;;;;;;;;5016692;28;20467;-55
2023/07/05 00:42:06;;;;;;;15.48;10.38;;;;;;;;;;5017123;28;20215;-54
2023/07/05 00:44:32;;;;;;;16.13;10.23;;;;;;;;;;5017004;28;20211;-54
2023/07/05 00:47:00;;;;;;;15.38;11.00;;;;;;;;;;5016359;28;20181;-55
2023/07/05 00:49:28;;;;;;;16.33;10.95;;;;;;;;;;5019355;28;20192;-55
2023/07/05 00:51:56;;;;;;;15.73;11.00;;;;;;;;;;5018628;28;20208;-55
2023/07/05 00:54:26;;;;;;;16.55;11.15;;;;;;;;;;5016334;28;20199;-55
2023/07/05 00:56:57;;;;;;;14.93;10.75;;;;;;;;;;5016137;28;20226;-55
2023/07/05 00:59:24;;;;;;;15.93;11.57;;;;;;;;;;5022991;28;20189;-55
2023/07/05 01:01:50;;;;;;;13.65;10.25;;;;;;;;;;5023250;28;20181;-55
2023/07/05 01:04:18;;;;;;;13.52;10.15;;;;;;;;;;5016402;28;20445;-55
2023/07/05 01:06:44;;;;;;;16.27;10.93;;;;;;;;;;5016158;28;20184;-55
2023/07/05 01:09:10;;;;;;;14.90;10.52;;;;;;;;;;5016486;28;20271;-55
2023/07/05 01:11:55;;;;;;;14.23;10.40;;;;;;;;;;5016341;28;20280;-55
2023/07/05 01:14:38;;;;;;;15.05;10.20;;;;;;;;;;5022988;28;20204;-55
2023/07/05 01:17:10;;;;;;;15.25;10.85;;;;;;;;;;5022360;28;20188;-56
2023/07/05 01:19:36;;;;;;;14.25;10.82;;;;;;;;;;5016266;28;20176;-55
2023/07/05 01:22:05;;;;;;;17.02;11.07;;;;;;;;;;5022411;28;20625;-55
2023/07/05 01:24:48;;;;;;;14.05;10.45;;;;;;;;;;5016342;28;20583;-55
2023/07/05 01:27:33;;;;;;;14.20;10.38;;;;;;;;;;5018927;28;20183;-55
2023/07/05 01:30:08;;;;;;;14.40;10.35;;;;;;;;;;5015564;28;20209;-55
2023/07/05 01:32:40;;;;;;;13.52;9.88;;;;;;;;;;5015591;28;20323;-56
2023/07/05 01:35:13;;;;;;;15.18;10.38;;;;;;;;;;5016035;28;20199;-55
2023/07/05 01:37:41;;;;;;;14.88;10.35;;;;;;;;;;5015836;28;20548;-55
2023/07/05 01:40:14;;;;;;;13.40;10.00;;;;;;;;;;5015268;28;20188;-55
2023/07/05 01:42:41;;;;;;;13.90;9.75;;;;;;;;;;5015874;28;20603;-56
2023/07/05 01:45:07;;;;;;;15.13;10.50;;;;;;;;;;5015573;28;20279;-55
2023/07/05 01:47:36;;;;;;;17.45;10.35;;;;;;;;;;5015099;28;20473;-56
2023/07/05 01:50:08;;;;;;;13.25;10.52;;;;;;;;;;5015933;28;20184;-55
2023/07/05 01:52:41;;;;;;;13.85;10.35;;;;;;;;;;5015526;28;20230;-55
2023/07/05 01:55:11;;;;;;;15.73;10.73;;;;;;;;;;5015967;28;20184;-55
2023/07/05 01:57:39;;;;;;;15.13;10.68;;;;;;;;;;5014912;28;20470;-55
2023/07/05 02:00:11;;;;;;;14.15;10.10;;;;;;;;;;5012845;28;20180;-55
2023/07/05 02:02:40;;;;;;;13.70;9.43;;;;;;;;;;5015229;28;20279;-55
2023/07/05 02:05:07;;;;;;;13.20;9.55;;;;;;;;;;5021720;28;20274;-55
2023/07/05 02:07:33;;;;;;;13.23;9.90;;;;;;;;;;5015339;28;20222;-55
2023/07/05 02:09:59;;;;;;;12.93;9.38;;;;;;;;;;5015417;28;20195;-55
2023/07/05 02:12:26;;;;;;;14.18;10.25;;;;;;;;;;5015234;28;20544;-55
2023/07/05 02:14:52;;;;;;;13.88;10.10;;;;;;;;;;5015400;28;20264;-55
2023/07/05 02:17:19;;;;;;;12.45;9.65;;;;;;;;;;5014737;28;20177;-56
2023/07/05 02:19:45;;;;;;;14.27;9.77;;;;;;;;;;5014990;28;20188;-55
2023/07/05 02:22:11;;;;;;;13.23;9.98;;;;;;;;;;5015095;28;20188;-55
2023/07/05 02:24:37;;;;;;;13.95;10.35;;;;;;;;;;5014891;28;20223;-55
2023/07/05 02:27:03;;;;;;;15.05;9.65;;;;;;;;;;5024156;28;20625;-54
2023/07/05 02:29:32;;;;;;;13.57;9.90;;;;;;;;;;5018519;28;20224;-56
2023/07/05 02:31:58;;;;;;;13.20;10.27;;;;;;;;;;5014693;28;20189;-56
2023/07/05 02:34:24;;;;;;;12.90;9.27;;;;;;;;;;5014782;28;20188;-55
2023/07/05 02:36:50;;;;;;;12.63;9.15;;;;;;;;;;5014588;28;20180;-55
2023/07/05 02:39:16;;;;;;;14.45;10.05;;;;;;;;;;5015192;28;20192;-55
2023/07/05 02:41:42;;;;;;;15.43;9.68;;;;;;;;;;5014897;28;20192;-55
2023/07/05 02:44:08;;;;;;;12.18;9.25;;;;;;;;;;5013062;28;20215;-55
2023/07/05 02:46:36;;;;;;;13.65;10.05;;;;;;;;;;5005581;28;20579;-55
2023/07/05 02:49:02;;;;;;;14.10;10.13;;;;;;;;;;5014443;28;20469;-55
2023/07/05 02:51:28;;;;;;;12.68;9.52;;;;;;;;;;5017445;28;20215;-55
2023/07/05 02:53:54;;;;;;;11.27;8.57;;;;;;;;;;5014469;28;20197;-55
2023/07/05 02:56:19;;;;;;;13.38;9.32;;;;;;;;;;5014261;28;20596;-56
2023/07/05 02:58:46;;;;;;;12.43;9.35;;;;;;;;;;5015643;28;20473;-56
2023/07/05 03:01:11;;;;;;;12.00;8.75;;;;;;;;;;5022258;28;20513;-55
2023/07/05 03:03:37;;;;;;;13.77;9.32;;;;;;;;;;5021026;28;20295;-55
2023/07/05 03:06:04;;;;;;;13.55;9.88;;;;;;;;;;5022404;28;20183;-56
2023/07/05 03:08:30;;;;;;;13.25;9.32;;;;;;;;;;5013097;28;20184;-55
2023/07/05 03:10:56;;;;;;;12.52;9.45;;;;;;;;;;5014524;28;20185;-55
2023/07/05 03:13:23;;;;;;;13.57;9.55;;;;;;;;;;5013682;28;20614;-56
2023/07/05 03:15:49;;;;;;;13.45;9.00;;;;;;;;;;5014453;28;20195;-55
2023/07/05 03:18:14;;;;;;;11.50;8.85;;;;;;;;;;5013711;28;20188;-55
2023/07/05 03:20:40;;;;;;;12.77;9.13;;;;;;;;;;5014651;28;20184;-55
2023/07/05 03:23:06;;;;;;;12.73;9.20;;;;;;;;;;5014176;28;20212;-55
2023/07/05 03:25:32;;;;;;;10.93;8.45;;;;;;;;;;5014863;28;20192;-56
2023/07/05 03:27:58;;;;;;;13.23;9.15;;;;;;;;;;5013732;28;20351;-56
2023/07/05 03:30:25;;;;;;;11.82;8.65;;;;;;;;;;5014579;28;20193;-56
2023/07/05 03:32:50;;;;;;;12.13;8.98;;;;;;;;;;5014277;28;20510;-55
2023/07/05 03:35:16;;;;;;;13.32;9.00;;;;;;;;;;5014947;28;20187;-55
2023/07/05 03:37:42;;;;;;;15.70;9.10;;;;;;;;;;5013576;28;20230;-55
2023/07/05 03:40:08;;;;;;;15.48;9.75;;;;;;;;;;5014411;28;20212;-55
2023/07/05 03:42:36;;;;;;;15.48;9.60;;;;;;;;;;5009905;28;20763;-55
2023/07/05 03:45:02;;;;;;;16.08;10.02;;;;;;;;;;5015980;28;20579;-56
2023/07/05 03:47:29;;;;;;;18.17;9.35;;;;;;;;;;5010953;28;20188;-54
2023/07/05 03:49:55;;;;;;;23.23;10.70;;;;;;;;;;5013808;28;20267;-54
2023/07/05 03:52:20;;;;;;;21.27;10.43;;;;;;;;;;5013815;28;20480;-55
2023/07/05 03:54:46;;;;;;;19.83;9.98;;;;;;;;;;5014051;28;20180;-55
2023/07/05 03:57:12;;;;;;;18.70;8.75;;;;;;;;;;5013235;28;20199;-55
2023/07/05 03:59:39;;;;;;;17.38;9.20;;;;;;;;;;5013776;28;20296;-55
2023/07/05 04:02:05;;;;;;;20.50;9.43;;;;;;;;;;5012797;28;20594;-55
2023/07/05 04:04:31;;;;;;;20.33;9.18;;;;;;;;;;5013899;28;20240;-54
2023/07/05 04:06:57;;;;;;;17.13;9.48;;;;;;;;;;5013685;28;20184;-54
2023/07/05 04:09:23;;;;;;;18.20;8.65;;;;;;;;;;5013798;28;20208;-55
2023/07/05 04:11:49;;;;;;;16.25;8.10;;;;;;;;;;5014034;28;20192;-56
2023/07/05 04:14:15;;;;;;;13.10;7.60;;;;;;;;;;5013724;28;20181;-55
2023/07/05 04:16:41;;;;;;;12.95;6.95;;;;;;;;;;5013627;28;20543;-55
2023/07/05 04:19:07;;;;;;;19.08;7.63;;;;;;;;;;5013693;28;20239;-55
2023/07/05 04:21:33;;;;;;;13.88;7.68;;;;;;;;;;5013498;28;20361;-55
2023/07/05 04:23:58;;;;;;;11.00;6.63;;;;;;;;;;5014877;28;20205;-55
2023/07/05 04:26:26;;;;;;;9.25;6.32;;;;;;;;;;5017446;28;20180;-55
2023/07/05 04:28:52;;;;;;;11.32;6.45;;;;;;;;;;5016468;28;20177;-55
2023/07/05 04:31:23;;;;;;;9.25;6.63;;;;;;;;;;5017359;28;20207;-56
2023/07/05 04:33:49;;;;;;;9.23;6.45;;;;;;;;;;5017254;28;20597;-56
2023/07/05 04:36:15;;;;;;;8.77;5.88;;;;;;;;;;5016819;28;20199;-55
2023/07/05 04:38:41;;;;;;;8.18;6.28;;;;;;;;;;5016430;28;20192;-55
2023/07/05 04:41:07;;;;;;;14.23;6.60;;;;;;;;;;5017104;28;20458;-55
2023/07/05 04:43:33;;;;;;;9.00;5.95;;;;;;;;;;5016960;28;20228;-55
2023/07/05 04:46:00;;;;;;;9.80;6.05;;;;;;;;;;5016648;28;20184;-55
2023/07/05 04:48:27;;;;;;;8.73;5.78;;;;;;;;;;5015760;28;20259;-55
2023/07/05 04:50:54;;;;;;;8.55;5.30;;;;;;;;;;5016550;28;20224;-55
2023/07/05 04:53:21;;;;;;;7.80;4.25;;;;;;;;;;5015057;28;20304;-56
2023/07/05 04:55:47;;;;;;;8.68;4.45;;;;;;;;;;5016661;28;20192;-57
2023/07/05 04:58:14;;;;;;;7.32;4.50;;;;;;;;;;5015982;28;20232;-57
2023/07/05 05:00:40;;;;;;;6.97;4.72;;;;;;;;;;5015859;28;20239;-57
2023/07/05 05:03:06;;;;;;;6.22;4.05;;;;;;;;;;5016156;28;20551;-55
2023/07/05 05:05:32;;;;;;;6.88;4.88;;;;;;;;;;5016611;28;20184;-55
2023/07/05 05:07:58;;;;;;;7.25;4.55;;;;;;;;;;5016182;28;20188;-54
2023/07/05 05:10:24;;;;;;;7.63;4.70;;;;;;;;;;5016169;28;20478;-55
2023/07/05 05:12:50;;;;;;;7.05;4.40;;;;;;;;;;5016629;28;20180;-56
2023/07/05 05:15:16;;;;;;;8.73;4.82;;;;;;;;;;5016583;28;20184;-55
2023/07/05 05:17:42;;;;;;;6.45;4.30;;;;;;;;;;5015794;28;20191;-55
2023/07/05 05:20:08;;;;;;;7.72;4.55;;;;;;;;;;5016588;28;20172;-55
2023/07/05 05:22:34;;;;;;;6.72;4.47;;;;;;;;;;5015774;28;20189;-55
2023/07/05 05:25:00;;;;;;;6.75;4.22;;;;;;;;;;5016095;28;20886;-55
2023/07/05 05:27:26;;;;;;;7.28;4.90;;;;;;;;;;5015933;28;20180;-55
2023/07/05 05:29:52;;;;;;;7.55;4.80;;;;;;;;;;5015057;28;20179;-55
2023/07/05 05:32:18;;;;;;;8.32;4.65;;;;;;;;;;5016190;28;20172;-55
2023/07/05 05:34:43;;;;;;;6.55;4.78;;;;;;;;;;5015691;28;20263;-55
2023/07/05 05:37:09;;;;;;;5.50;4.22;;;;;;;;;;5014591;28;20246;-55
2023/07/05 05:39:35;;;;;;;7.00;4.47;;;;;;;;;;5015723;28;20189;-55
2023/07/05 05:42:02;;;;;;;9.38;4.78;;;;;;;;;;5016206;28;20177;-55
2023/07/05 05:44:27;;;;;;;5.78;4.40;;;;;;;;;;5015758;28;20207;-55
2023/07/05 05:46:53;;;;;;;8.43;4.97;;;;;;;;;;5015047;28;20184;-56
2023/07/05 05:49:20;;;;;;;7.05;4.30;;;;;;;;;;5015239;28;20469;-54
2023/07/05 05:51:46;;;;;;;7.03;4.22;;;;;;;;;;5015368;28;20182;-56
2023/07/05 05:54:12;;;;;;;6.88;4.35;;;;;;;;;;5011998;28;20555;-55
2023/07/05 05:56:38;;;;;;;5.07;4.10;;;;;;;;;;5015336;28;20184;-55
2023/07/05 05:59:04;;;;;;;8.18;4.28;;;;;;;;;;5015150;28;20180;-55
2023/07/05 06:01:30;;;;;;;5.43;3.72;;;;;;;;;;5014349;28;20254;-55
2023/07/05 06:03:56;;;;;;;8.38;4.07;;;;;;;;;;5015223;28;20236;-56
2023/07/05 06:06:22;;;;;;;7.43;4.15;;;;;;;;;;5015553;28;20191;-56
2023/07/05 06:08:47;;;;;;;4.97;4.10;;;;;;;;;;5014909;28;20180;-55
2023/07/05 06:11:13;;;;;;;5.80;4.07;;;;;;;;;;5015073;28;20177;-56
2023/07/05 06:13:39;;;;;;;5.50;3.80;;;;;;;;;;5015509;28;20467;-55
2023/07/05 06:16:05;;;;;;;4.28;3.67;;;;;;;;;;5015103;28;20180;-56
2023/07/05 06:18:31;;;;;;;5.25;3.40;;;;;;;;;;5014420;28;20184;-56
2023/07/05 06:20:57;;;;;;;4.90;3.25;;;;;;;;;;5014856;28;20189;-55
2023/07/05 06:23:23;;;;;;;4.22;3.55;;;;;;;;;;5015017;28;20295;-57
2023/07/05 06:25:50;;;;;;;5.22;3.33;;;;;;;;;;5014930;28;20540;-57
2023/07/05 06:28:16;;;;;;;5.13;3.53;;;;;;;;;;5014459;28;20207;-55
2023/07/05 06:30:42;;;;;;;5.50;3.15;;;;;;;;;;5006668;28;20180;-55
2023/07/05 06:33:08;;;;;;;4.45;3.10;;;;;;;;;;5014707;28;20187;-55
2023/07/05 06:35:34;;;;;;;5.20;3.05;;;;;;;;;;5014940;28;20255;-55
2023/07/05 06:38:00;;;;;;;4.53;3.08;;;;;;;;;;5014605;28;20528;-55
2023/07/05 06:40:26;;;;;;;4.32;2.88;;;;;;;;;;5014765;28;20222;-56
2023/07/05 06:42:52;;;;;;;4.13;2.65;;;;;;;;;;5014676;28;20222;-56
2023/07/05 06:45:18;;;;;;;3.97;3.03;;;;;;;;;;5014211;28;20322;-56
2023/07/05 06:47:45;;;;;;;5.13;3.17;;;;;;;;;;5013957;28;20256;-56
2023/07/05 06:50:12;;;;;;;4.78;3.08;;;;;;;;;;5014413;28;20243;-54
2023/07/05 06:52:38;;;;;;;4.82;2.53;;;;;;;;;;5014609;28;20188;-55
2023/07/05 06:55:05;;;;;;;6.25;2.78;;;;;;;;;;5014854;28;20198;-56
2023/07/05 06:57:31;;;;;;;5.60;2.80;;;;;;;;;;5013946;28;20211;-55
2023/07/05 06:59:57;;;;;;;4.55;2.45;;;;;;;;;;5013616;28;20270;-55
2023/07/05 07:02:22;;;;;;;4.15;2.05;;;;;;;;;;5013485;28;20192;-55
2023/07/05 07:04:48;;;;;;;3.10;2.30;;;;;;;;;;5014636;28;20200;-56
2023/07/05 07:07:14;;;;;;;3.20;2.28;;;;;;;;;;5014116;28;20434;-56
2023/07/05 07:09:43;;;;;;;2.58;2.10;;;;;;;;;;5014352;28;20231;-56
2023/07/05 07:12:09;;;;;;;5.18;2.60;;;;;;;;;;5014344;28;20204;-56
2023/07/05 07:14:35;;;;;;;3.78;2.22;;;;;;;;;;5014506;28;20180;-56
2023/07/05 07:17:01;;;;;;;3.17;2.17;;;;;;;;;;5014010;28;20358;-56
2023/07/05 07:19:27;;;;;;;2.53;2.00;;;;;;;;;;5014057;28;20199;-56
2023/07/05 07:21:53;;;;;;;2.90;2.33;;;;;;;;;;5014055;28;20515;-56
2023/07/05 07:24:19;;;;;;;2.65;2.05;;;;;;;;;;5014360;28;20215;-56
2023/07/05 07:26:45;;;;;;;4.40;2.22;;;;;;;;;;5013743;28;20231;-56
2023/07/05 07:29:12;;;;;;;3.33;2.40;;;;;;;;;;5014335;28;20173;-56
2023/07/05 07:31:38;;;;;;;4.63;2.50;;;;;;;;;;5014094;28;20203;-56
2023/07/05 07:34:07;;;;;;;3.33;2.15;;;;;;;;;;5014622;28;20199;-56
2023/07/05 07:36:34;;;;;;;4.25;2.10;;;;;;;;;;5013860;28;20541;-56
2023/07/05 07:39:00;;;;;;;5.50;2.30;;;;;;;;;;5013682;28;20206;-55
2023/07/05 07:41:34;;;;;;;3.55;2.20;;;;;;;;;;5013656;28;20180;-56
2023/07/05 07:44:00;;;;;;;2.72;2.10;;;;;;;;;;5014256;28;20208;-54
2023/07/05 07:46:27;;;;;;;2.17;1.88;;;;;;;;;;5014047;28;20586;-55
2023/07/05 07:48:54;;;;;;;3.60;2.22;;;;;;;;;;5013687;28;20215;-57
2023/07/05 07:51:22;;;;;;;2.78;2.00;;;;;;;;;;5013674;28;20187;-57
2023/07/05 07:53:47;;;;;;;4.38;2.28;;;;;;;;;;5013555;28;20203;-55
2023/07/05 07:56:14;;;;;;;2.92;1.90;;;;;;;;;;5013516;28;20267;-56
2023/07/05 07:58:40;;;;;;;2.95;2.10;;;;;;;;;;5014501;28;20192;-56
2023/07/05 08:01:10;;;;;;;2.75;2.10;;;;;;;;;;5017281;28;20184;-56
2023/07/05 08:03:36;;;;;;;2.72;1.77;;;;;;;;;;5017520;28;20211;-56
2023/07/05 08:06:02;;;;;;;2.15;1.75;;;;;;;;;;5017453;28;20173;-55
2023/07/05 08:08:28;;;;;;;2.28;2.05;;;;;;;;;;5017116;28;20529;-56
2023/07/05 08:10:54;;;;;;;2.75;1.92;;;;;;;;;;5017654;28;20204;-55
2023/07/05 08:13:20;;;;;;;2.17;1.95;;;;;;;;;;5017603;28;20198;-55
2023/07/05 08:15:46;;;;;;;3.55;2.08;;;;;;;;;;5017478;28;20192;-55
2023/07/05 08:18:11;;;;;;;2.03;1.70;;;;;;;;;;5016949;28;20184;-57
2023/07/05 08:20:37;;;;;;;2.10;1.90;;;;;;;;;;5016824;28;20254;-56
2023/07/05 08:23:05;;;;;;;2.50;1.77;;;;;;;;;;5017025;28;20240;-56
2023/07/05 08:25:33;;;;;;;4.35;1.73;;;;;;;;;;5017012;28;20214;-56
2023/07/05 08:27:59;;;;;;;2.53;1.83;;;;;;;;;;5016977;28;20541;-56
2023/07/05 08:30:26;;;;;;;2.58;1.60;;;;;;;;;;5017377;28;20187;-55
2023/07/05 08:32:53;;;;;;;3.53;1.52;;;;;;;;;;5017058;28;20177;-55
2023/07/05 08:35:19;;;;;;;2.38;1.48;;;;;;;;;;5017112;28;20552;-55
2023/07/05 08:37:48;;;;;;;3.33;1.70;;;;;;;;;;5016449;28;20185;-57
2023/07/05 08:40:14;;;;;;;1.58;1.17;;;;;;;;;;5017002;28;20188;-57
2023/07/05 08:42:48;;;;;;;2.70;1.15;;;;;;;;;;5016632;28;20267;-57
2023/07/05 08:45:29;;;;;;;3.03;1.50;;;;;;;;;;5016830;28;20223;-55
2023/07/05 08:47:56;;;;;;;3.83;1.60;;;;;;;;;;5015515;28;20189;-55
2023/07/05 08:50:30;;;;;;;1.52;1.23;;;;;;;;;;5017069;28;20177;-55
2023/07/05 08:53:01;;;;;;;2.55;1.58;;;;;;;;;;5016198;28;20195;-55
2023/07/05 08:55:31;;;;;;;1.58;1.27;;;;;;;;;;5016893;28;20590;-55
2023/07/05 08:57:57;;;;;;;4.90;1.50;;;;;;;;;;5009487;28;20219;-56
2023/07/05 09:00:28;;;;;;;2.60;1.40;;;;;;;;;;5016207;28;20197;-56
2023/07/05 09:02:54;;;;;;;3.47;1.75;;;;;;;;;;5016286;28;20185;-56
2023/07/05 09:05:52;;;;;;;1.90;1.50;;;;;;;;;;5016080;28;20223;-56
2023/07/05 09:08:30;;;;;;;3.20;1.60;;;;;;;;;;4967471;28;20204;-56
2023/07/05 09:11:00;;;;;;;2.03;1.35;;;;;;;;;;5016384;28;20513;-56
2023/07/05 09:13:37;;;;;;;5.00;1.60;;;;;;;;;;5016343;28;20196;-56
2023/07/05 09:16:04;;;;;;;1.63;1.52;;;;;;;;;;5016032;28;20267;-56
2023/07/05 09:18:51;;;;;;;1.92;1.70;;;;;;;;;;5015680;28;20188;-56
2023/07/05 09:21:35;;;;;;;2.50;1.88;;;;;;;;;;5016061;28;20204;-56
2023/07/05 09:24:07;;;;;;;3.25;1.80;;;;;;;;;;5015319;28;20312;-56
2023/07/05 09:26:35;;;;;;;4.07;2.22;;;;;;;;;;5012781;28;20211;-57
2023/07/05 09:29:27;;;;;;;3.22;1.90;;;;;;;;;;5013796;28;20219;-55
2023/07/05 09:31:54;;;;;;;2.97;2.00;;;;;;;;;;5015820;28;20211;-56
2023/07/05 09:34:26;;;;;;;3.15;1.90;;;;;;;;;;5015703;28;20181;-56
2023/07/05 09:36:52;;;;;;;2.10;1.77;;;;;;;;;;5015820;28;20212;-56
2023/07/05 09:39:38;;;;;;;2.47;1.92;;;;;;;;;;5015777;28;20290;-58
2023/07/05 09:42:05;;;;;;;3.97;1.80;;;;;;;;;;5001505;28;20614;-57
2023/07/05 09:44:31;;;;;;;2.63;2.10;;;;;;;;;;5015671;28;20204;-56
2023/07/05 09:46:58;;;;;;;2.45;1.70;;;;;;;;;;5014946;28;20575;-56
2023/07/05 09:49:25;;;;;;;3.20;1.80;;;;;;;;;;5015565;28;20193;-56
2023/07/05 09:51:52;;;;;;;3.30;1.83;;;;;;;;;;5015666;28;20184;-57
2023/07/05 09:54:23;;;;;;;2.78;1.98;;;;;;;;;;5014963;28;20567;-57
2023/07/05 09:56:59;;;;;;;2.15;1.70;;;;;;;;;;5015093;28;20199;-55
2023/07/05 09:59:25;;;;;;;1.90;1.63;;;;;;;;;;5015635;28;20538;-55
2023/07/05 10:02:08;;;;;;;3.67;1.65;;;;;;;;;;5015149;28;20192;-55
2023/07/05 10:04:43;;;;;;;2.92;1.40;;;;;;;;;;5015392;28;20200;-56
2023/07/05 10:07:14;;;;;;;2.45;1.20;;;;;;;;;;5011108;28;20184;-56
2023/07/05 10:09:53;;;;;;;3.63;1.50;;;;;;;;;;5012565;28;20231;-56
2023/07/05 10:12:20;;;;;;;2.05;1.20;;;;;;;;;;5015388;28;20208;-57
2023/07/05 10:14:53;;;;;;;1.95;1.40;;;;;;;;;;5015126;28;20267;-56
2023/07/05 10:17:19;;;;;;;1.98;1.40;;;;;;;;;;5014519;28;20194;-56
2023/07/05 10:19:55;;;;;;;2.53;1.50;;;;;;;;;;5014975;28;20572;-57
2023/07/05 10:22:25;;;;;;;2.20;1.45;;;;;;;;;;5011139;28;20203;-55
2023/07/05 10:24:53;;;;;;;3.83;1.40;;;;;;;;;;5014995;28;20216;-55
2023/07/05 10:27:25;;;;;;;2.13;1.40;;;;;;;;;;5014514;28;20172;-57
2023/07/05 10:30:00;;;;;;;2.20;1.50;;;;;;;;;;5014501;28;20181;-57
2023/07/05 10:32:26;;;;;;;3.92;1.77;;;;;;;;;;5014915;28;20179;-57
2023/07/05 10:34:52;;;;;;;1.85;1.45;;;;;;;;;;5014769;28;20192;-56
2023/07/05 10:37:26;;;;;;;4.10;1.42;;;;;;;;;;5014472;28;20190;-56
2023/07/05 10:39:52;;;;;;;2.80;1.80;;;;;;;;;;5014698;28;20441;-58
2023/07/05 10:42:18;;;;;;;2.15;1.55;;;;;;;;;;5014460;28;20191;-57
2023/07/05 10:44:44;;;;;;;1.45;1.27;;;;;;;;;;5014637;28;20274;-55
2023/07/05 10:47:12;;;;;;;1.30;1.17;;;;;;;;;;5013663;28;20177;-56
2023/07/05 10:49:38;;;;;;;2.33;0.95;;;;;;;;;;5014485;28;20198;-55
2023/07/05 10:52:06;;;;;;;2.05;1.10;;;;;;;;;;5014554;28;20181;-56
2023/07/05 10:54:44;;;;;;;4.30;1.17;;;;;;;;;;5014496;28;20585;-57
2023/07/05 10:57:22;;;;;;;2.42;1.10;;;;;;;;;;5013897;28;20187;-55
2023/07/05 10:59:56;;;;;;;2.20;1.00;;;;;;;;;;5014362;28;20263;-56
2023/07/05 11:02:40;;;;;;;2.10;1.17;;;;;;;;;;5014147;28;20276;-55
2023/07/05 11:05:16;;;;;;;1.45;1.35;;;;;;;;;;5020305;28;20208;-55
2023/07/05 11:07:43;;;;;;;3.10;1.30;;;;;;;;;;5014542;28;20192;-55
2023/07/05 11:10:13;;;;;;;1.25;1.10;;;;;;;;;;5014548;28;20196;-55
2023/07/05 11:12:41;;;;;;;1.98;1.27;;;;;;;;;;5019459;28;20180;-55
2023/07/05 11:15:10;;;;;;;1.98;1.20;;;;;;;;;;5014561;28;20234;-55
2023/07/05 11:17:37;;;;;;;1.35;1.15;;;;;;;;;;5014024;28;20243;-55
2023/07/05 11:20:06;;;;;;;2.70;1.33;;;;;;;;;;4997241;28;20180;-55
2023/07/05 11:22:43;;;;;;;1.80;1.60;;;;;;;;;;5014568;28;20200;-55
2023/07/05 11:25:18;;;;;;;3.13;1.45;;;;;;;;;;5021673;28;20231;-56
2023/07/05 11:27:52;;;;;;;4.03;1.50;;;;;;;;;;4998456;28;20184;-56
2023/07/05 11:30:37;;;;;;;5.18;2.30;;;;;;;;;;5012952;28;20567;-57
2023/07/05 11:33:03;;;;;;;3.15;1.50;;;;;;;;;;5014228;28;20264;-57
2023/07/05 11:35:48;;;;;;;3.63;1.50;;;;;;;;;;5017983;28;20263;-58
2023/07/05 11:38:33;;;;;;;3.17;1.80;;;;;;;;;;5017800;28;20187;-58
2023/07/05 11:40:59;;;;;;;2.13;1.38;;;;;;;;;;5017812;28;20460;-58
2023/07/05 11:43:26;;;;;;;1.85;1.40;;;;;;;;;;5017936;28;20207;-58
2023/07/05 11:45:52;;;;;;;1.70;1.60;;;;;;;;;;5017568;28;20254;-58
2023/07/05 11:48:37;;;;;;;4.25;1.42;;;;;;;;;;5017547;28;20212;-58
2023/07/05 11:51:03;;;;;;;2.35;1.48;;;;;;;;;;5017884;28;20172;-58
2023/07/05 11:53:32;;;;;;;2.85;1.77;;;;;;;;;;5018019;28;20681;-55
2023/07/05 11:55:59;;;;;;;1.60;1.50;;;;;;;;;;5017535;28;21149;-57
2023/07/05 11:58:28;;;;;;;4.20;1.40;;;;;;;;;;5017397;28;20206;-57
2023/07/05 12:01:00;;;;;;;2.15;1.75;;;;;;;;;;5019244;28;20251;-58
2023/07/05 12:03:28;;;;;;;1.63;1.38;;;;;;;;;;5019839;28;20192;-57
2023/07/05 12:05:59;;;;;;;1.40;1.30;;;;;;;;;;5019796;28;20243;-58
2023/07/05 12:08:40;;;;;;;5.30;1.70;;;;;;;;;;5019786;28;20525;-58
2023/07/05 12:11:06;;;;;;;1.65;1.40;;;;;;;;;;5019898;28;20165;-55
2023/07/05 12:13:33;;;;;;;2.38;1.52;;;;;;;;;;5019956;28;20444;-57
2023/07/05 12:15:59;;;;;;;2.13;1.45;;;;;;;;;;5019713;28;20172;-56
2023/07/05 12:18:27;;;;;;;2.88;1.73;;;;;;;;;;5019484;28;20228;-57
2023/07/05 12:20:54;;;;;;;2.17;1.50;;;;;;;;;;5019537;28;20168;-56
2023/07/05 12:23:21;;;;;;;1.92;1.77;;;;;;;;;;5019598;28;20183;-55
2023/07/05 12:25:49;;;;;;;3.15;2.08;;;;;;;;;;5019490;28;20180;-56
2023/07/05 12:28:16;;;;;;;1.92;1.40;;;;;;;;;;5019358;28;20175;-58
2023/07/05 12:30:44;;;;;;;2.47;1.90;;;;;;;;;;5019496;28;20160;-58
2023/07/05 12:33:19;;;;;;;1.42;1.30;;;;;;;;;;5019239;28;20187;-56
2023/07/05 12:35:45;;;;;;;2.63;1.70;;;;;;;;;;5019144;28;20544;-56
2023/07/05 12:38:17;;;;;;;2.28;1.60;;;;;;;;;;5019138;28;20175;-55
2023/07/05 12:40:50;;;;;;;3.67;1.55;;;;;;;;;;5002138;28;20176;-56
2023/07/05 12:43:22;;;;;;;2.47;1.60;;;;;;;;;;5019279;28;20455;-55
2023/07/05 12:45:48;;;;;;;1.50;1.40;;;;;;;;;;5018726;28;20200;-55
2023/07/05 12:48:15;;;;;;;1.65;1.42;;;;;;;;;;5018941;28;20267;-55
2023/07/05 12:50:41;;;;;;;2.50;1.60;;;;;;;;;;5017501;28;20235;-55
2023/07/05 12:53:16;;;;;;;2.67;1.85;;;;;;;;;;5015097;28;20213;-55
2023/07/05 12:55:50;;;;;;;3.70;1.95;;;;;;;;;;5016701;28;20447;-56
2023/07/05 12:58:16;;;;;;;2.30;1.70;;;;;;;;;;5016290;28;20522;-56
2023/07/05 13:00:49;;;;;;;2.42;1.50;;;;;;;;;;5011546;28;20193;-55
2023/07/05 13:03:16;;;;;;;2.15;1.70;;;;;;;;;;5004563;28;20606;-55
2023/07/05 13:05:41;;;;;;;1.50;1.40;;;;;;;;;;5011411;28;20180;-55
2023/07/05 13:08:08;;;;;;;1.52;1.42;;;;;;;;;;5008338;28;20196;-55
2023/07/05 13:10:38;;;;;;;1.98;1.60;;;;;;;;;;5010149;28;20180;-55
2023/07/05 13:13:22;;;;;;;2.53;1.90;;;;;;;;;;5016515;28;20207;-55
2023/07/05 13:15:48;;;;;;;3.20;1.48;;;;;;;;;;5016347;28;20196;-55
2023/07/05 13:18:15;;;;;;;2.22;1.98;;;;;;;;;;5015868;28;20203;-55
2023/07/05 13:20:41;;;;;;;2.67;1.80;;;;;;;;;;5016395;28;20181;-55
2023/07/05 13:23:07;;;;;;;4.63;2.03;;;;;;;;;;5016344;28;20192;-55
2023/07/05 13:25:41;;;;;;;2.92;2.20;;;;;;;;;;5000644;28;20192;-55
2023/07/05 13:28:18;;;;;;;2.60;1.90;;;;;;;;;;5015530;28;20192;-55
2023/07/05 13:30:44;;;;;;;3.90;2.05;;;;;;;;;;5016396;28;20219;-55
2023/07/05 13:33:12;;;;;;;3.75;2.30;;;;;;;;;;5015998;28;20267;-56
2023/07/05 13:35:38;;;;;;;3.60;2.17;;;;;;;;;;5016388;28;20187;-56
2023/07/05 13:38:04;;;;;;;3.45;2.33;;;;;;;;;;5015232;28;20476;-56
2023/07/05 13:40:30;;;;;;;2.88;2.30;;;;;;;;;;5015731;28;20191;-56
2023/07/05 13:42:56;;;;;;;3.28;2.20;;;;;;;;;;5015375;28;20194;-56
2023/07/05 13:45:24;;;;;;;5.97;2.40;;;;;;;;;;4998664;28;20204;-56
2023/07/05 13:47:50;;;;;;;3.10;2.30;;;;;;;;;;5014748;28;20176;-56
2023/07/05 13:50:16;;;;;;;3.33;1.98;;;;;;;;;;5007915;28;20207;-56
2023/07/05 13:52:43;;;;;;;3.25;2.28;;;;;;;;;;5014781;28;20283;-55
2023/07/05 13:55:15;;;;;;;3.00;2.10;;;;;;;;;;5014502;28;20181;-57
2023/07/05 13:57:51;;;;;;;2.72;2.20;;;;;;;;;;5014088;28;21021;-55
2023/07/05 14:00:18;;;;;;;3.33;2.40;;;;;;;;;;5015381;28;20231;-55
2023/07/05 14:02:44;;;;;;;4.07;2.70;;;;;;;;;;5011217;28;20203;-56
2023/07/05 14:05:12;;;;;;;3.15;2.20;;;;;;;;;;5012014;28;20223;-57
2023/07/05 14:07:38;;;;;;;5.57;2.35;;;;;;;;;;5011418;28;20189;-56
2023/07/05 14:10:05;;;;;;;4.70;2.60;;;;;;;;;;5011066;28;20236;-57
2023/07/05 14:12:31;;;;;;;3.50;2.67;;;;;;;;;;5012446;28;20176;-55
2023/07/05 14:14:57;;;;;;;3.10;2.25;;;;;;;;;;5010134;28;20561;-55
2023/07/05 14:17:23;;;;;;;2.92;2.35;;;;;;;;;;5014169;28;20263;-55
2023/07/05 14:19:50;;;;;;;2.97;2.30;;;;;;;;;;5015059;28;20502;-54
2023/07/05 14:22:17;;;;;;;3.42;2.45;;;;;;;;;;5014677;28;20215;-55
2023/07/05 14:24:44;;;;;;;3.35;2.47;;;;;;;;;;5015153;28;20212;-55
2023/07/05 14:27:23;;;;;;;3.70;2.58;;;;;;;;;;5014802;28;20188;-56
2023/07/05 14:29:52;;;;;;;2.88;2.30;;;;;;;;;;5014893;28;20514;-56
2023/07/05 14:32:18;;;;;;;3.67;2.45;;;;;;;;;;5014501;28;20180;-55
2023/07/05 14:34:44;;;;;;;3.45;2.70;;;;;;;;;;5010680;28;20184;-55
2023/07/05 14:37:11;;;;;;;4.93;2.38;;;;;;;;;;5014422;28;20188;-55
2023/07/05 14:39:37;;;;;;;4.05;2.28;;;;;;;;;;5014047;28;20188;-55
2023/07/05 14:42:03;;;;;;;4.32;2.70;;;;;;;;;;5014713;28;20192;-55